Time;durP1;ratioP1;P1;durP2;ratioP2;P2;SDS_P1;SDS_P2;PMS_P1;PMS_P2;Temp;Humidity;BMP_temperature;BMP_pressure;BME280_temperature;BME280_humidity;BME280_pressure;Samples;Min_cycle;Max_cycle;Signal;HPM_P1;HPM_P2
2023/04/20 00:02:01;;;;;;;42.03;24.05;;;;;;;;;;6248520;28;20159;-77
2023/04/20 00:05:04;;;;;;;11.60;6.78;;;;;;;;;;6243491;28;20053;-76
2023/04/20 00:08:06;;;;;;;8.20;4.53;;;;;;;;;;6241752;28;20057;-80
2023/04/20 00:11:07;;;;;;;7.88;4.65;;;;;;;;;;6247697;28;20049;-77
2023/04/20 00:14:09;;;;;;;8.50;4.93;;;;;;;;;;6248139;28;20211;-77
2023/04/20 00:17:12;;;;;;;5.97;4.95;;;;;;;;;;6244234;28;20057;-76
2023/04/20 00:20:14;;;;;;;7.35;5.85;;;;;;;;;;6242004;28;20041;-77
2023/04/20 00:23:16;;;;;;;7.43;5.60;;;;;;;;;;6243329;28;20057;-77
2023/04/20 00:26:17;;;;;;;6.88;5.50;;;;;;;;;;6244900;28;20054;-76
2023/04/20 00:29:19;;;;;;;8.38;6.13;;;;;;;;;;6239816;28;20278;-76
2023/04/20 00:32:22;;;;;;;10.95;6.70;;;;;;;;;;6243402;28;20397;-81
2023/04/20 00:35:24;;;;;;;8.98;6.43;;;;;;;;;;6238316;28;20137;-77
2023/04/20 00:38:26;;;;;;;7.95;6.03;;;;;;;;;;6245431;28;20273;-76
2023/04/20 00:41:28;;;;;;;7.93;6.93;;;;;;;;;;6241012;28;20321;-76
2023/04/20 00:44:29;;;;;;;9.30;6.32;;;;;;;;;;6240109;28;20277;-76
2023/04/20 00:47:33;;;;;;;9.48;6.75;;;;;;;;;;6243355;28;20061;-81
2023/04/20 00:50:35;;;;;;;10.63;6.78;;;;;;;;;;6241107;28;20049;-76
2023/04/20 00:53:37;;;;;;;8.60;6.88;;;;;;;;;;6241957;28;20119;-76
2023/04/20 00:56:39;;;;;;;8.98;6.88;;;;;;;;;;6240284;28;20119;-77
2023/04/20 00:59:40;;;;;;;8.02;6.30;;;;;;;;;;6241960;28;20116;-78
2023/04/20 01:02:43;;;;;;;7.57;6.13;;;;;;;;;;6240222;28;20160;-77
2023/04/20 01:05:45;;;;;;;8.05;6.22;;;;;;;;;;6242334;28;20345;-78
2023/04/20 01:08:48;;;;;;;8.02;5.72;;;;;;;;;;6243207;28;20948;-78
2023/04/20 01:11:50;;;;;;;7.00;5.57;;;;;;;;;;6241626;28;20126;-77
2023/04/20 01:14:52;;;;;;;6.50;5.05;;;;;;;;;;6242482;28;20859;-76
2023/04/20 01:17:56;;;;;;;8.27;4.95;;;;;;;;;;6237560;28;20387;-76
2023/04/20 01:20:58;;;;;;;5.88;3.97;;;;;;;;;;6247463;28;20045;-78
2023/04/20 01:24:01;;;;;;;5.68;4.13;;;;;;;;;;6242463;28;20103;-77
2023/04/20 01:27:02;;;;;;;4.82;3.75;;;;;;;;;;6243488;28;20141;-86
2023/04/20 01:30:05;;;;;;;5.70;3.72;;;;;;;;;;6240622;28;20077;-81
2023/04/20 01:33:07;;;;;;;6.28;4.20;;;;;;;;;;6243863;28;20244;-77
2023/04/20 01:36:09;;;;;;;4.78;3.40;;;;;;;;;;6243616;28;20053;-79
2023/04/20 01:39:12;;;;;;;5.45;3.53;;;;;;;;;;6240659;28;20108;-77
2023/04/20 01:42:14;;;;;;;6.22;3.78;;;;;;;;;;6244119;28;20056;-77
2023/04/20 01:45:16;;;;;;;5.97;4.35;;;;;;;;;;6238797;28;20057;-77
2023/04/20 01:48:17;;;;;;;8.02;4.88;;;;;;;;;;6242806;28;20147;-75
2023/04/20 01:51:19;;;;;;;6.70;4.15;;;;;;;;;;6242651;28;20342;-77
2023/04/20 01:54:22;;;;;;;6.07;4.40;;;;;;;;;;6244813;28;20580;-77
2023/04/20 01:57:24;;;;;;;5.93;4.33;;;;;;;;;;6242085;28;20076;-81
2023/04/20 02:00:26;;;;;;;6.70;4.75;;;;;;;;;;6239648;28;20064;-77
2023/04/20 02:03:28;;;;;;;6.15;3.90;;;;;;;;;;6245133;28;20116;-78
2023/04/20 02:06:30;;;;;;;5.55;4.00;;;;;;;;;;6243344;28;20045;-77
2023/04/20 02:09:33;;;;;;;6.07;4.85;;;;;;;;;;6240766;28;20080;-77
2023/04/20 02:12:35;;;;;;;8.00;4.90;;;;;;;;;;6241404;28;20060;-78
2023/04/20 02:15:37;;;;;;;8.25;5.25;;;;;;;;;;6244296;28;20061;-76
2023/04/20 02:18:38;;;;;;;7.60;5.70;;;;;;;;;;6245719;28;20053;-77
2023/04/20 02:21:40;;;;;;;7.18;5.60;;;;;;;;;;6247668;28;20061;-76
2023/04/20 02:24:43;;;;;;;8.52;5.47;;;;;;;;;;6244009;28;20053;-77
2023/04/20 02:27:45;;;;;;;7.50;5.95;;;;;;;;;;6246648;28;20064;-77
2023/04/20 02:30:46;;;;;;;8.02;6.55;;;;;;;;;;6242482;28;20440;-82
2023/04/20 02:33:48;;;;;;;8.73;6.40;;;;;;;;;;6244064;28;20053;-77
2023/04/20 02:36:50;;;;;;;7.95;6.43;;;;;;;;;;6246688;28;20041;-77
2023/04/20 02:39:53;;;;;;;9.40;6.15;;;;;;;;;;6245628;28;20069;-77
2023/04/20 02:42:54;;;;;;;8.80;6.55;;;;;;;;;;6243614;28;20093;-77
2023/04/20 02:45:56;;;;;;;8.85;6.30;;;;;;;;;;6240941;28;20249;-77
2023/04/20 02:48:58;;;;;;;7.93;6.30;;;;;;;;;;6246239;28;20407;-78
2023/04/20 02:51:59;;;;;;;8.52;6.10;;;;;;;;;;6239655;28;20049;-83
2023/04/20 02:55:02;;;;;;;9.48;7.10;;;;;;;;;;6240566;28;20099;-83
2023/04/20 02:58:04;;;;;;;7.53;5.85;;;;;;;;;;6240971;28;20420;-79
2023/04/20 03:01:06;;;;;;;10.02;6.15;;;;;;;;;;6240344;28;20057;-78
2023/04/20 03:04:08;;;;;;;7.47;5.85;;;;;;;;;;6240637;28;20088;-77
2023/04/20 03:07:09;;;;;;;9.15;5.95;;;;;;;;;;6242842;28;20061;-77
2023/04/20 03:10:13;;;;;;;10.25;6.40;;;;;;;;;;6240514;28;20049;-76
2023/04/20 03:13:14;;;;;;;8.03;6.77;;;;;;;;;;6246757;28;20147;-76
2023/04/20 03:16:17;;;;;;;7.90;5.72;;;;;;;;;;6247148;28;20371;-78
2023/04/20 03:19:18;;;;;;;10.43;5.90;;;;;;;;;;6247919;28;20108;-75
2023/04/20 03:22:20;;;;;;;8.40;6.25;;;;;;;;;;6244644;28;20073;-79
2023/04/20 03:25:23;;;;;;;7.88;5.70;;;;;;;;;;6246590;28;20053;-75
2023/04/20 03:28:24;;;;;;;7.13;5.57;;;;;;;;;;6248319;28;20057;-75
2023/04/20 03:31:26;;;;;;;8.13;5.22;;;;;;;;;;6245655;28;20218;-76
2023/04/20 03:34:27;;;;;;;7.22;5.28;;;;;;;;;;6245201;28;20069;-76
2023/04/20 03:37:29;;;;;;;8.45;4.82;;;;;;;;;;6246032;28;20049;-77
2023/04/20 03:40:32;;;;;;;9.40;5.35;;;;;;;;;;6234101;28;20060;-87
2023/04/20 03:43:34;;;;;;;6.85;5.13;;;;;;;;;;6245012;28;20112;-77
2023/04/20 03:46:36;;;;;;;7.70;5.50;;;;;;;;;;6245684;28;20236;-76
2023/04/20 03:49:38;;;;;;;7.45;5.63;;;;;;;;;;6243013;28;20061;-83
2023/04/20 03:52:40;;;;;;;7.82;5.45;;;;;;;;;;6236078;28;20120;-76
2023/04/20 03:55:43;;;;;;;9.20;6.07;;;;;;;;;;6239468;28;20077;-79
2023/04/20 03:58:44;;;;;;;8.43;6.63;;;;;;;;;;6242617;28;20088;-77
2023/04/20 04:01:46;;;;;;;10.45;7.57;;;;;;;;;;6244709;28;20053;-77
2023/04/20 04:04:47;;;;;;;13.10;8.48;;;;;;;;;;6245168;28;20050;-76
2023/04/20 04:07:49;;;;;;;10.00;8.18;;;;;;;;;;6245904;28;20432;-89
2023/04/20 04:10:52;;;;;;;11.98;8.25;;;;;;;;;;6243057;28;20192;-89
2023/04/20 04:13:54;;;;;;;11.80;8.83;;;;;;;;;;6244839;28;20058;-77
2023/04/20 04:16:56;;;;;;;13.90;9.55;;;;;;;;;;6237427;28;20065;-78
2023/04/20 04:19:57;;;;;;;11.75;9.18;;;;;;;;;;6243092;28;20227;-78
2023/04/20 04:22:59;;;;;;;13.60;10.18;;;;;;;;;;6244302;28;20257;-76
2023/04/20 04:26:02;;;;;;;13.35;9.85;;;;;;;;;;6244544;28;20096;-83
2023/04/20 04:29:05;;;;;;;14.20;10.55;;;;;;;;;;6244369;28;20237;-88
2023/04/20 04:32:07;;;;;;;14.15;9.93;;;;;;;;;;6243865;28;20045;-79
2023/04/20 04:35:10;;;;;;;12.63;9.68;;;;;;;;;;6243752;28;20045;-83
2023/04/20 04:38:12;;;;;;;13.73;10.90;;;;;;;;;;6247116;28;20331;-77
2023/04/20 04:41:15;;;;;;;14.07;9.73;;;;;;;;;;6242395;28;20076;-78
2023/04/20 04:44:17;;;;;;;14.38;10.13;;;;;;;;;;6240634;28;20369;-79
2023/04/20 04:47:20;;;;;;;13.57;10.32;;;;;;;;;;6241507;28;20397;-77
2023/04/20 04:50:22;;;;;;;14.90;10.05;;;;;;;;;;6240852;28;20056;-78
2023/04/20 04:53:23;;;;;;;13.70;10.73;;;;;;;;;;6245818;28;20104;-77
2023/04/20 04:56:27;;;;;;;15.38;10.65;;;;;;;;;;6236100;28;20050;-76
2023/04/20 04:59:28;;;;;;;14.48;11.07;;;;;;;;;;6243568;28;20077;-76
2023/04/20 05:02:30;;;;;;;13.45;10.95;;;;;;;;;;6243481;28;20329;-76
2023/04/20 05:05:32;;;;;;;14.57;9.85;;;;;;;;;;6241576;28;20294;-79
2023/04/20 05:08:33;;;;;;;12.38;9.35;;;;;;;;;;6245485;28;20037;-77
2023/04/20 05:11:36;;;;;;;13.57;10.52;;;;;;;;;;6241695;28;20091;-79
2023/04/20 05:14:38;;;;;;;15.05;10.40;;;;;;;;;;6241689;28;20359;-79
2023/04/20 05:17:40;;;;;;;13.88;10.20;;;;;;;;;;6243345;28;20332;-77
2023/04/20 05:20:41;;;;;;;14.35;10.05;;;;;;;;;;6241406;28;20095;-77
2023/04/20 05:23:43;;;;;;;12.88;10.20;;;;;;;;;;6244284;28;20057;-74
2023/04/20 05:26:46;;;;;;;14.70;10.68;;;;;;;;;;6241761;28;20080;-77
2023/04/20 05:29:48;;;;;;;16.98;10.15;;;;;;;;;;6242233;28;20274;-77
2023/04/20 05:32:50;;;;;;;13.48;10.80;;;;;;;;;;6244083;28;20092;-77
2023/04/20 05:35:55;;;;;;;14.65;10.52;;;;;;;;;;6240052;28;20068;-76
2023/04/20 05:38:57;;;;;;;14.82;11.15;;;;;;;;;;6240798;28;20100;-76
2023/04/20 05:42:00;;;;;;;15.93;11.63;;;;;;;;;;6241023;28;20099;-87
2023/04/20 05:45:02;;;;;;;15.52;11.65;;;;;;;;;;6244857;28;20244;-77
2023/04/20 05:48:04;;;;;;;17.40;11.73;;;;;;;;;;6241516;28;20230;-77
2023/04/20 05:51:06;;;;;;;19.75;11.90;;;;;;;;;;6243453;28;20053;-75
2023/04/20 05:54:07;;;;;;;16.90;11.85;;;;;;;;;;6247644;28;20382;-76
2023/04/20 05:57:10;;;;;;;18.40;11.85;;;;;;;;;;6243675;28;20360;-77
2023/04/20 06:00:14;;;;;;;17.92;11.63;;;;;;;;;;6247024;28;20345;-84
2023/04/20 06:03:16;;;;;;;16.02;10.95;;;;;;;;;;6247015;28;20061;-80
2023/04/20 06:06:18;;;;;;;16.52;11.93;;;;;;;;;;6239707;28;20117;-77
2023/04/20 06:09:20;;;;;;;20.15;11.98;;;;;;;;;;6245651;28;20054;-76
2023/04/20 06:12:23;;;;;;;31.08;14.07;;;;;;;;;;6242582;28;20326;-82
2023/04/20 06:15:25;;;;;;;21.05;12.88;;;;;;;;;;6245462;28;20053;-78
2023/04/20 06:18:27;;;;;;;19.90;12.38;;;;;;;;;;6246382;28;20152;-77
2023/04/20 06:21:29;;;;;;;16.73;12.25;;;;;;;;;;6246336;28;20092;-77
2023/04/20 06:24:30;;;;;;;18.10;11.68;;;;;;;;;;6247554;28;20049;-76
2023/04/20 06:27:33;;;;;;;16.38;11.27;;;;;;;;;;6240545;28;20103;-74
2023/04/20 06:30:35;;;;;;;17.88;11.98;;;;;;;;;;6239934;28;20053;-74
2023/04/20 06:33:37;;;;;;;18.17;12.15;;;;;;;;;;6241070;28;20045;-76
2023/04/20 06:36:42;;;;;;;17.85;12.27;;;;;;;;;;6241926;28;20095;-76
2023/04/20 06:39:43;;;;;;;17.90;11.35;;;;;;;;;;6239696;28;20054;-75
2023/04/20 06:42:46;;;;;;;18.60;11.85;;;;;;;;;;6241398;28;20057;-78
2023/04/20 06:45:48;;;;;;;14.20;11.48;;;;;;;;;;6233299;28;20104;-75
2023/04/20 06:48:50;;;;;;;17.02;11.65;;;;;;;;;;6242532;28;20091;-75
2023/04/20 06:51:51;;;;;;;16.58;10.80;;;;;;;;;;6239145;28;20230;-75
2023/04/20 06:54:53;;;;;;;20.75;12.20;;;;;;;;;;6241741;28;20099;-75
2023/04/20 06:57:56;;;;;;;18.58;11.48;;;;;;;;;;6239311;28;20208;-76
2023/04/20 07:00:57;;;;;;;18.20;11.57;;;;;;;;;;6240805;28;20061;-75
2023/04/20 07:03:59;;;;;;;18.98;11.60;;;;;;;;;;6241831;28;20065;-75
2023/04/20 07:07:01;;;;;;;16.33;10.65;;;;;;;;;;6242476;28;20370;-81
2023/04/20 07:10:02;;;;;;;17.65;11.15;;;;;;;;;;6241652;28;20131;-80
2023/04/20 07:13:05;;;;;;;14.90;9.82;;;;;;;;;;6239465;28;20092;-78
2023/04/20 07:16:08;;;;;;;15.13;9.90;;;;;;;;;;6238721;28;20052;-77
2023/04/20 07:19:10;;;;;;;15.75;9.43;;;;;;;;;;6238986;28;20113;-75
2023/04/20 07:22:12;;;;;;;14.18;9.52;;;;;;;;;;6238086;28;20053;-83
2023/04/20 07:25:13;;;;;;;14.90;10.63;;;;;;;;;;6238551;28;20064;-76
2023/04/20 07:28:16;;;;;;;20.13;10.65;;;;;;;;;;6240934;28;20073;-79
2023/04/20 07:31:18;;;;;;;13.93;10.07;;;;;;;;;;6239574;28;20062;-75
2023/04/20 07:34:20;;;;;;;16.65;10.60;;;;;;;;;;6239346;28;20106;-77
2023/04/20 07:37:23;;;;;;;15.38;10.43;;;;;;;;;;6241730;28;20353;-76
2023/04/20 07:40:24;;;;;;;15.95;10.95;;;;;;;;;;6241468;28;20060;-79
2023/04/20 07:43:27;;;;;;;22.70;11.13;;;;;;;;;;6242422;28;20084;-78
2023/04/20 07:46:29;;;;;;;15.60;10.10;;;;;;;;;;6237941;28;20053;-77
2023/04/20 07:49:31;;;;;;;17.05;11.02;;;;;;;;;;6241010;28;20054;-78
2023/04/20 07:52:33;;;;;;;16.17;11.68;;;;;;;;;;6238306;28;20088;-78
2023/04/20 07:55:34;;;;;;;16.90;10.75;;;;;;;;;;6241939;28;20095;-79
2023/04/20 07:58:39;;;;;;;16.92;11.32;;;;;;;;;;6246727;28;20428;-77
2023/04/20 08:01:41;;;;;;;14.70;10.50;;;;;;;;;;6243453;28;20175;-78
2023/04/20 08:04:43;;;;;;;19.13;12.00;;;;;;;;;;6241738;28;20135;-84
2023/04/20 08:07:45;;;;;;;20.13;11.80;;;;;;;;;;6243915;28;20076;-78
2023/04/20 08:10:46;;;;;;;20.17;12.18;;;;;;;;;;6246500;28;20050;-77
2023/04/20 08:13:49;;;;;;;19.67;11.73;;;;;;;;;;6243107;28;20735;-78
2023/04/20 08:16:51;;;;;;;20.17;12.38;;;;;;;;;;6242643;28;20053;-77
2023/04/20 08:19:53;;;;;;;23.63;14.07;;;;;;;;;;6243605;28;20053;-80
2023/04/20 08:22:54;;;;;;;21.98;13.48;;;;;;;;;;6242721;28;20087;-77
2023/04/20 08:25:56;;;;;;;22.08;13.65;;;;;;;;;;6244764;28;20284;-77
2023/04/20 08:28:59;;;;;;;22.65;14.02;;;;;;;;;;6243936;28;20103;-78
2023/04/20 08:32:01;;;;;;;24.20;14.48;;;;;;;;;;6243494;28;20092;-80
2023/04/20 08:35:04;;;;;;;38.58;14.95;;;;;;;;;;6243615;28;20812;-80
2023/04/20 08:38:05;;;;;;;30.77;15.18;;;;;;;;;;6241616;28;20052;-78
2023/04/20 08:41:07;;;;;;;27.25;14.85;;;;;;;;;;6243207;28;20053;-79
2023/04/20 08:44:10;;;;;;;23.08;14.80;;;;;;;;;;6243226;28;20113;-78
2023/04/20 08:47:12;;;;;;;23.83;14.88;;;;;;;;;;6245287;28;20358;-82
2023/04/20 08:50:14;;;;;;;26.95;16.08;;;;;;;;;;6243951;28;20583;-78
2023/04/20 08:53:15;;;;;;;26.83;16.00;;;;;;;;;;6240809;28;20109;-79
2023/04/20 08:56:17;;;;;;;26.90;15.73;;;;;;;;;;6243538;28;20061;-79
2023/04/20 08:59:20;;;;;;;27.67;15.52;;;;;;;;;;6243630;28;20069;-79
2023/04/20 09:02:22;;;;;;;27.60;16.15;;;;;;;;;;6241857;28;20289;-79
2023/04/20 09:05:27;;;;;;;28.95;17.13;;;;;;;;;;6239320;28;20337;-80
2023/04/20 09:08:36;;;;;;;31.25;17.55;;;;;;;;;;6244485;28;20102;-78
2023/04/20 09:11:38;;;;;;;28.50;16.67;;;;;;;;;;6241880;28;20335;-80
2023/04/20 09:14:44;;;;;;;30.80;17.13;;;;;;;;;;6241545;28;20061;-79
2023/04/20 09:17:46;;;;;;;27.60;17.00;;;;;;;;;;6239831;28;20368;-79
2023/04/20 09:20:47;;;;;;;26.17;16.60;;;;;;;;;;6241304;28;20096;-82
2023/04/20 09:23:59;;;;;;;31.20;17.48;;;;;;;;;;6244411;28;20111;-78
2023/04/20 09:27:02;;;;;;;33.75;17.92;;;;;;;;;;6244635;28;20370;-83
2023/04/20 09:30:08;;;;;;;27.50;16.92;;;;;;;;;;6241178;28;20049;-81
2023/04/20 09:33:11;;;;;;;32.33;18.08;;;;;;;;;;6240584;28;20273;-79
2023/04/20 09:36:12;;;;;;;30.35;17.70;;;;;;;;;;6241026;28;20076;-78
2023/04/20 09:39:16;;;;;;;33.00;18.20;;;;;;;;;;6241507;28;20046;-78
2023/04/20 09:42:18;;;;;;;31.95;17.73;;;;;;;;;;6241577;28;22250;-77
2023/04/20 09:45:21;;;;;;;29.60;18.00;;;;;;;;;;6242056;28;20056;-78
2023/04/20 09:48:22;;;;;;;36.22;18.80;;;;;;;;;;6241226;28;20057;-84
2023/04/20 09:51:26;;;;;;;30.08;16.98;;;;;;;;;;6241738;28;20052;-77
2023/04/20 09:54:29;;;;;;;29.05;16.98;;;;;;;;;;6239849;28;20053;-82
2023/04/20 09:57:32;;;;;;;30.35;17.48;;;;;;;;;;6242788;28;20104;-77
2023/04/20 10:00:35;;;;;;;28.55;17.80;;;;;;;;;;6241886;28;20053;-79
2023/04/20 10:03:36;;;;;;;30.70;17.95;;;;;;;;;;6240933;28;20103;-77
2023/04/20 10:06:38;;;;;;;30.60;17.58;;;;;;;;;;6242570;28;21060;-77
2023/04/20 10:09:40;;;;;;;28.88;17.63;;;;;;;;;;6240783;28;20085;-78
2023/04/20 10:12:49;;;;;;;29.00;17.05;;;;;;;;;;6242793;28;20057;-84
2023/04/20 10:15:52;;;;;;;28.13;17.45;;;;;;;;;;6239301;28;20045;-80
2023/04/20 10:18:58;;;;;;;29.15;18.02;;;;;;;;;;6242511;28;20057;-78
2023/04/20 10:21:59;;;;;;;29.95;17.67;;;;;;;;;;6241024;28;20045;-78
2023/04/20 10:25:01;;;;;;;28.33;18.02;;;;;;;;;;6241790;28;20046;-79
2023/04/20 10:28:08;;;;;;;29.77;18.25;;;;;;;;;;6239068;28;20104;-79
2023/04/20 10:31:13;;;;;;;28.30;17.50;;;;;;;;;;6240338;28;20099;-79
2023/04/20 10:34:15;;;;;;;25.98;17.45;;;;;;;;;;6240862;28;20091;-77
2023/04/20 10:37:16;;;;;;;24.42;16.38;;;;;;;;;;6240405;28;20288;-78
2023/04/20 10:40:25;;;;;;;25.25;16.67;;;;;;;;;;6238031;28;20054;-77
2023/04/20 10:43:26;;;;;;;22.95;16.45;;;;;;;;;;6243918;28;20057;-78
2023/04/20 10:46:29;;;;;;;23.30;15.93;;;;;;;;;;6240823;28;20057;-76
2023/04/20 10:49:31;;;;;;;25.17;16.25;;;;;;;;;;6241757;28;20477;-77
2023/04/20 10:52:34;;;;;;;22.55;15.82;;;;;;;;;;6242272;28;20060;-78
2023/04/20 10:55:36;;;;;;;22.08;15.55;;;;;;;;;;6236997;28;20096;-77
2023/04/20 10:58:39;;;;;;;21.48;15.15;;;;;;;;;;6239752;28;20340;-78
2023/04/20 11:01:43;;;;;;;21.20;15.35;;;;;;;;;;6239813;28;20325;-77
2023/04/20 11:04:45;;;;;;;21.42;15.32;;;;;;;;;;6241363;28;20056;-78
2023/04/20 11:07:53;;;;;;;21.02;15.10;;;;;;;;;;6237580;28;20065;-77
2023/04/20 11:10:54;;;;;;;20.58;13.75;;;;;;;;;;6242754;28;20089;-81
2023/04/20 11:14:06;;;;;;;18.70;14.15;;;;;;;;;;6238731;28;20069;-77
2023/04/20 11:17:10;;;;;;;17.02;12.93;;;;;;;;;;6239458;28;20396;-77
2023/04/20 11:20:14;;;;;;;21.38;14.88;;;;;;;;;;6241748;28;20393;-80
2023/04/20 11:23:15;;;;;;;17.17;13.60;;;;;;;;;;6239483;28;20045;-78
2023/04/20 11:26:17;;;;;;;20.45;14.23;;;;;;;;;;6239938;28;20057;-79
2023/04/20 11:29:29;;;;;;;24.67;15.55;;;;;;;;;;6247489;28;20053;-75
2023/04/20 11:32:33;;;;;;;17.58;13.57;;;;;;;;;;6250018;28;20059;-76
2023/04/20 11:35:36;;;;;;;20.48;15.20;;;;;;;;;;6248085;28;20053;-90
2023/04/20 11:38:38;;;;;;;20.63;14.00;;;;;;;;;;6251167;28;20077;-82
2023/04/20 11:41:41;;;;;;;22.75;14.30;;;;;;;;;;6251948;28;20049;-76
2023/04/20 11:44:42;;;;;;;22.20;14.30;;;;;;;;;;6248401;28;20054;-81
2023/04/20 11:47:46;;;;;;;16.88;12.23;;;;;;;;;;6250740;28;20049;-79
2023/04/20 11:50:47;;;;;;;20.13;12.90;;;;;;;;;;6252534;28;20054;-79
2023/04/20 11:53:49;;;;;;;19.20;12.88;;;;;;;;;;6249068;28;20100;-77
2023/04/20 11:56:51;;;;;;;18.20;13.85;;;;;;;;;;6250817;28;20125;-76
2023/04/20 11:59:52;;;;;;;18.48;13.20;;;;;;;;;;6251698;28;20058;-87
2023/04/20 12:02:55;;;;;;;22.38;14.07;;;;;;;;;;6253467;28;20100;-77
2023/04/20 12:05:57;;;;;;;23.00;14.83;;;;;;;;;;6251705;28;20342;-79
2023/04/20 12:08:59;;;;;;;21.02;14.20;;;;;;;;;;6252590;28;20103;-80
2023/04/20 12:12:01;;;;;;;20.45;14.23;;;;;;;;;;6248657;28;20080;-78
2023/04/20 12:15:02;;;;;;;22.33;14.52;;;;;;;;;;6249494;28;20042;-81
2023/04/20 12:18:05;;;;;;;20.65;13.88;;;;;;;;;;6249491;28;20316;-79
2023/04/20 12:21:07;;;;;;;19.95;14.15;;;;;;;;;;6250094;28;20041;-80
2023/04/20 12:24:09;;;;;;;21.88;14.73;;;;;;;;;;6251397;28;20047;-81
2023/04/20 12:27:11;;;;;;;20.40;14.00;;;;;;;;;;6255107;28;20085;-83
2023/04/20 12:30:15;;;;;;;22.52;14.20;;;;;;;;;;6250132;28;20080;-76
2023/04/20 12:33:18;;;;;;;21.50;14.20;;;;;;;;;;6254235;28;20053;-78
2023/04/20 12:36:20;;;;;;;21.33;14.52;;;;;;;;;;6248653;28;20372;-78
2023/04/20 12:39:21;;;;;;;19.58;14.02;;;;;;;;;;6243342;28;20108;-78
2023/04/20 12:42:23;;;;;;;17.80;13.25;;;;;;;;;;6243946;28;20053;-78
2023/04/20 12:45:25;;;;;;;22.05;15.07;;;;;;;;;;6245858;28;20058;-83
2023/04/20 12:48:27;;;;;;;22.23;15.48;;;;;;;;;;6243845;28;20107;-78
2023/04/20 12:51:30;;;;;;;24.70;15.63;;;;;;;;;;6246039;28;20057;-77
2023/04/20 12:54:32;;;;;;;19.23;13.70;;;;;;;;;;6242836;28;20639;-77
2023/04/20 12:57:34;;;;;;;19.75;13.55;;;;;;;;;;6243147;28;20408;-79
2023/04/20 13:00:36;;;;;;;16.40;12.75;;;;;;;;;;6243787;28;20049;-81
2023/04/20 13:03:39;;;;;;;15.70;11.75;;;;;;;;;;6241666;28;21051;-79
2023/04/20 13:06:40;;;;;;;14.47;11.53;;;;;;;;;;6244570;28;20096;-81
2023/04/20 13:09:42;;;;;;;15.07;10.38;;;;;;;;;;6243883;28;20518;-84
2023/04/20 13:12:44;;;;;;;13.98;10.23;;;;;;;;;;6242817;28;20054;-81
2023/04/20 13:15:46;;;;;;;15.35;9.95;;;;;;;;;;6245192;28;20049;-80
2023/04/20 13:18:49;;;;;;;13.23;10.20;;;;;;;;;;6245505;28;20283;-80
2023/04/20 13:21:50;;;;;;;14.65;10.07;;;;;;;;;;6243143;28;20274;-80
2023/04/20 13:24:52;;;;;;;18.33;10.95;;;;;;;;;;6245217;28;20336;-79
2023/04/20 13:27:54;;;;;;;13.18;9.25;;;;;;;;;;6247116;28;20065;-79
2023/04/20 13:30:57;;;;;;;12.38;9.18;;;;;;;;;;6245893;28;20305;-81
2023/04/20 13:34:00;;;;;;;13.70;9.68;;;;;;;;;;6246123;28;20053;-80
2023/04/20 13:37:02;;;;;;;14.23;9.75;;;;;;;;;;6249989;28;20284;-78
2023/04/20 13:40:05;;;;;;;11.93;9.48;;;;;;;;;;6247410;28;20348;-79
2023/04/20 13:43:06;;;;;;;14.70;10.13;;;;;;;;;;6250642;28;20042;-80
2023/04/20 13:46:08;;;;;;;11.40;9.45;;;;;;;;;;6249293;28;20049;-79
2023/04/20 13:49:11;;;;;;;15.75;9.40;;;;;;;;;;6243080;28;20349;-80
2023/04/20 13:52:13;;;;;;;12.60;10.18;;;;;;;;;;6239420;28;20050;-79
2023/04/20 13:55:15;;;;;;;12.35;9.48;;;;;;;;;;6243262;28;20052;-81
2023/04/20 13:58:16;;;;;;;13.15;9.63;;;;;;;;;;6240180;28;20128;-79
2023/04/20 14:01:18;;;;;;;14.60;9.57;;;;;;;;;;6241697;28;20096;-78
2023/04/20 14:04:21;;;;;;;13.50;9.60;;;;;;;;;;6242840;28;20451;-79
2023/04/20 14:07:22;;;;;;;14.63;8.35;;;;;;;;;;6244211;28;20084;-79
2023/04/20 14:10:24;;;;;;;11.80;8.05;;;;;;;;;;6242621;28;20061;-85
2023/04/20 14:13:26;;;;;;;10.00;7.75;;;;;;;;;;6244285;28;20057;-81
2023/04/20 14:16:27;;;;;;;10.40;7.53;;;;;;;;;;6241434;28;20050;-80
2023/04/20 14:19:30;;;;;;;9.20;6.95;;;;;;;;;;6241791;28;20057;-79
2023/04/20 14:22:34;;;;;;;10.03;7.80;;;;;;;;;;6242331;28;20053;-79
2023/04/20 14:25:36;;;;;;;11.27;7.68;;;;;;;;;;6244332;28;20279;-80
2023/04/20 14:28:38;;;;;;;10.05;7.53;;;;;;;;;;6239862;28;20452;-86
2023/04/20 14:31:39;;;;;;;9.43;7.00;;;;;;;;;;6242629;28;20053;-79
2023/04/20 14:34:42;;;;;;;9.85;7.30;;;;;;;;;;6241770;28;20070;-78
2023/04/20 14:37:44;;;;;;;9.45;6.57;;;;;;;;;;6241560;28;20053;-77
2023/04/20 14:40:47;;;;;;;11.48;7.15;;;;;;;;;;6242442;28;20077;-81
2023/04/20 14:43:48;;;;;;;8.90;6.72;;;;;;;;;;6241605;28;20065;-80
2023/04/20 14:46:50;;;;;;;8.02;6.60;;;;;;;;;;6241866;28;20061;-79
2023/04/20 14:49:54;;;;;;;8.52;6.53;;;;;;;;;;6239752;28;20057;-79
2023/04/20 14:52:56;;;;;;;8.82;6.68;;;;;;;;;;6240605;28;20273;-79
2023/04/20 14:55:57;;;;;;;10.60;8.10;;;;;;;;;;6241541;28;20045;-80
2023/04/20 14:58:59;;;;;;;9.73;7.13;;;;;;;;;;6239379;28;20053;-78
2023/04/20 15:02:01;;;;;;;8.40;6.60;;;;;;;;;;6241448;28;20073;-85
2023/04/20 15:05:04;;;;;;;12.18;7.43;;;;;;;;;;6246561;28;20053;-85
2023/04/20 15:08:06;;;;;;;8.57;6.75;;;;;;;;;;6249747;28;20046;-80
2023/04/20 15:11:08;;;;;;;13.05;6.82;;;;;;;;;;6248728;28;20049;-79
2023/04/20 15:14:12;;;;;;;8.05;6.97;;;;;;;;;;6245656;28;20380;-80
2023/04/20 15:17:13;;;;;;;9.57;7.55;;;;;;;;;;6248344;28;20049;-80
2023/04/20 15:20:16;;;;;;;10.30;7.88;;;;;;;;;;6247333;28;20059;-81
2023/04/20 15:23:18;;;;;;;9.70;7.15;;;;;;;;;;6245116;28;20128;-77
2023/04/20 15:26:20;;;;;;;13.93;9.27;;;;;;;;;;6243019;28;20060;-78
2023/04/20 15:29:21;;;;;;;11.07;8.73;;;;;;;;;;6247900;28;20053;-79
2023/04/20 15:32:23;;;;;;;12.50;8.05;;;;;;;;;;6243951;28;20049;-78
2023/04/20 15:35:26;;;;;;;11.15;8.00;;;;;;;;;;6247844;28;20384;-85
2023/04/20 15:38:28;;;;;;;12.90;10.27;;;;;;;;;;6247886;28;20100;-86
2023/04/20 15:41:29;;;;;;;30.30;10.80;;;;;;;;;;6246653;28;20535;-80
2023/04/20 15:44:31;;;;;;;30.55;14.30;;;;;;;;;;6246994;28;20056;-80
2023/04/20 15:47:32;;;;;;;22.85;12.75;;;;;;;;;;6250067;28;20325;-78
2023/04/20 15:50:36;;;;;;;93.22;29.80;;;;;;;;;;6243704;28;20738;-80
2023/04/20 15:53:38;;;;;;;24.20;14.55;;;;;;;;;;6245935;28;20321;-79
2023/04/20 15:56:39;;;;;;;20.92;14.93;;;;;;;;;;6246690;28;20065;-80
2023/04/20 15:59:41;;;;;;;23.23;14.35;;;;;;;;;;6245182;28;20046;-81
2023/04/20 16:02:43;;;;;;;26.38;14.68;;;;;;;;;;6254959;23;20057;-79
2023/04/20 16:05:46;;;;;;;22.00;14.82;;;;;;;;;;6255300;28;20199;-84
2023/04/20 16:08:52;;;;;;;22.83;14.70;;;;;;;;;;6254733;28;20052;-78
2023/04/20 16:11:53;;;;;;;23.33;15.48;;;;;;;;;;6251980;28;20053;-80
2023/04/20 16:14:55;;;;;;;26.67;16.80;;;;;;;;;;6250055;28;20053;-78
2023/04/20 16:17:58;;;;;;;21.17;15.25;;;;;;;;;;6251804;28;20085;-78
2023/04/20 16:21:01;;;;;;;31.67;17.13;;;;;;;;;;6251512;28;20149;-87
2023/04/20 16:24:03;;;;;;;23.17;16.30;;;;;;;;;;6253039;28;20490;-81
2023/04/20 16:27:05;;;;;;;22.98;15.77;;;;;;;;;;6251322;28;20084;-78
2023/04/20 16:30:08;;;;;;;21.70;15.45;;;;;;;;;;6253250;28;20103;-81
2023/04/20 16:33:10;;;;;;;24.23;18.00;;;;;;;;;;6248525;28;20324;-79
2023/04/20 16:36:15;;;;;;;24.67;16.25;;;;;;;;;;6254774;28;20053;-86
2023/04/20 16:39:17;;;;;;;25.20;16.30;;;;;;;;;;6250024;28;20339;-79
2023/04/20 16:42:19;;;;;;;23.60;16.38;;;;;;;;;;6250322;28;20073;-81
2023/04/20 16:45:20;;;;;;;22.70;15.80;;;;;;;;;;6252366;28;20057;-87
2023/04/20 16:48:22;;;;;;;26.70;16.65;;;;;;;;;;6249002;28;20053;-83
2023/04/20 16:51:26;;;;;;;21.35;14.95;;;;;;;;;;6253705;28;20046;-81
2023/04/20 16:54:27;;;;;;;22.25;15.00;;;;;;;;;;6249158;28;20060;-83
2023/04/20 16:57:30;;;;;;;22.45;14.50;;;;;;;;;;6251929;28;20061;-77
2023/04/20 17:00:32;;;;;;;24.90;14.52;;;;;;;;;;6253433;28;20348;-89
2023/04/20 17:03:34;;;;;;;19.48;14.10;;;;;;;;;;6273259;28;20060;-80
2023/04/20 17:06:37;;;;;;;20.20;13.60;;;;;;;;;;6277215;28;20075;-80
2023/04/20 17:09:39;;;;;;;17.67;13.13;;;;;;;;;;6279574;28;20276;-79
2023/04/20 17:12:40;;;;;;;18.58;12.60;;;;;;;;;;6279537;28;20051;-78
2023/04/20 17:15:43;;;;;;;17.58;11.95;;;;;;;;;;6278824;28;20053;-77
2023/04/20 17:18:45;;;;;;;17.67;11.98;;;;;;;;;;6273980;28;20102;-82
2023/04/20 17:21:48;;;;;;;23.38;11.35;;;;;;;;;;6273928;28;20175;-76
2023/04/20 17:24:50;;;;;;;15.93;11.80;;;;;;;;;;6276175;28;20253;-91
2023/04/20 17:27:51;;;;;;;16.90;11.90;;;;;;;;;;6276951;28;20592;-78
2023/04/20 17:30:53;;;;;;;20.30;12.98;;;;;;;;;;6277630;28;20264;-81
2023/04/20 17:33:55;;;;;;;20.88;12.68;;;;;;;;;;6272283;28;20287;-82
2023/04/20 17:36:58;;;;;;;22.50;13.82;;;;;;;;;;6277944;28;20060;-76
2023/04/20 17:40:00;;;;;;;24.73;15.07;;;;;;;;;;6276523;28;20052;-86
2023/04/20 17:43:02;;;;;;;30.17;16.48;;;;;;;;;;6278063;28;20920;-82
2023/04/20 17:46:03;;;;;;;24.85;15.55;;;;;;;;;;6276981;28;20057;-85
2023/04/20 17:49:05;;;;;;;26.50;16.70;;;;;;;;;;6275572;28;20084;-75
2023/04/20 17:52:11;;;;;;;26.48;17.10;;;;;;;;;;6275934;28;20056;-79